Terminal Aerodrome Forecast
Issued by NWS Twin Cities, MN

Home | Current Version | Previous Version | Text Only | Print | Product List | Glossary On
Versions: 1 2 3 4 5 6 7 8 9 10 11 12 13 14 15 16 17 18 19
773
FTUS43 KMPX 070417 AAA
TAFEAU
TAF AMD
KEAU 070417Z 0704/0724 20013KT 5SM -SNRA OVC035
     FM070700 22012KT P6SM BKN120
     FM071600 26013KT P6SM SCT025 OVC035
     FM072100 27014G20KT 2SM -SHSN OVC020=

USA.gov is the U.S. government's official web portal to all federal, state and local government web resources and services.